To NAV CANADA Home Page Login to a new session Search on AWWS site Feedback and Comments Disclaimer Vers la page française équivalente Tips FAQ What's new on the site To the Forecasts and Observations / NOTAM section To "File a Flight Plan" website Publications and other links Update of the User's profile FIC Telephone Numbers My Weather Data Folder Route Weather Data Regional Weather Data Local Weather Data To the Forecasts and Observations / NOTAM section
Request Generated 05/22/2015 at 17:31:04 UTC . Weather information available at that time is displayed.

METAR/TAF

TORONTO/LESTER B. PEARSON INTL/ON    

METAR CYYZ 221700Z 32015G23KT 15SM FEW055 BKN063 BKN070 14/M01 A3007
RMK CU2SC3AC2 SLP184=
METAR CYYZ 221600Z 30015G23KT 15SM FEW050 BKN062 BKN070 15/M01 A3006
RMK CU2SC3AC1 SLP181=
METAR CYYZ 221500Z 31006KT 280V360 15SM SCT055 BKN070 14/02 A3006 RMK
CU4AC1 SLP181=

TAF CYYZ 221438Z 2215/2318 32009KT P6SM SKC
BECMG 2215/2217 32012G22KT
BECMG 2223/2301 33012KT
FM230500 26005KT P6SM SKC
BECMG 2312/2314 24012KT
BECMG 2316/2318 26012G22KT
RMK NXT FCST BY 221800Z=
Your time UTC time
Weather data provided by Environment Canada and NAV CANADA